createdAt,value
2018-06-22T00:00:11.594Z,11.99
2018-06-22T00:01:11.582Z,12.03
2018-06-22T00:02:11.571Z,12.03
2018-06-22T00:03:11.566Z,12.02
2018-06-22T00:04:11.558Z,12.06
2018-06-22T00:05:11.554Z,11.95
2018-06-22T00:06:11.547Z,11.99
2018-06-22T00:07:11.535Z,11.99
2018-06-22T00:08:11.527Z,12.02
2018-06-22T00:09:11.516Z,11.99
2018-06-22T00:10:11.507Z,12.03
2018-06-22T00:11:11.501Z,11.94
2018-06-22T00:12:11.494Z,11.94
2018-06-22T00:13:11.489Z,11.88
2018-06-22T00:14:11.538Z,11.86
2018-06-22T00:15:11.472Z,11.86
2018-06-22T00:16:11.461Z,11.95
2018-06-22T00:17:11.453Z,11.86
2018-06-22T00:18:11.460Z,11.95
2018-06-22T00:19:11.441Z,11.88
2018-06-22T00:20:11.432Z,11.87
2018-06-22T00:21:11.422Z,11.86
2018-06-22T00:22:11.419Z,11.87
2018-06-22T00:23:11.406Z,11.86
2018-06-22T00:24:11.395Z,11.73
2018-06-22T00:25:11.391Z,11.70
2018-06-22T00:26:11.403Z,11.84
2018-06-22T00:27:11.375Z,11.70
2018-06-22T00:28:11.366Z,11.78
2018-06-22T00:29:11.361Z,11.73
2018-06-22T00:30:11.348Z,11.75
2018-06-22T00:31:11.341Z,11.70
2018-06-22T00:32:11.331Z,11.72
2018-06-22T00:33:11.325Z,11.72
2018-06-22T00:34:11.323Z,11.69
2018-06-22T00:35:11.312Z,11.68
2018-06-22T00:36:11.302Z,11.65
2018-06-22T00:37:11.290Z,11.54
2018-06-22T00:38:11.283Z,11.63
2018-06-22T00:39:11.282Z,11.59
2018-06-22T00:40:11.266Z,11.62
2018-06-22T00:41:11.263Z,11.60
2018-06-22T00:42:11.252Z,11.52
2018-06-22T00:43:11.267Z,11.54
2018-06-22T00:44:11.231Z,11.66
2018-06-22T00:45:11.228Z,11.54
2018-06-22T00:46:11.216Z,11.54
2018-06-22T00:47:11.208Z,11.55
2018-06-22T00:48:11.203Z,11.52
2018-06-22T00:49:11.195Z,11.57
2018-06-22T00:50:11.191Z,11.51
2018-06-22T00:51:11.181Z,11.60
2018-06-22T00:52:11.170Z,11.55
2018-06-22T00:53:11.162Z,11.57
2018-06-22T00:54:11.151Z,11.57
2018-06-22T00:55:11.147Z,11.59
2018-06-22T00:56:11.139Z,11.48
2018-06-22T00:57:11.130Z,11.43
2018-06-22T00:58:11.118Z,11.44
2018-06-22T00:59:11.112Z,11.55
2018-06-22T01:00:11.104Z,11.37
2018-06-22T01:01:11.097Z,11.43
2018-06-22T01:02:11.086Z,11.47
2018-06-22T01:03:11.106Z,11.54
2018-06-22T01:04:11.074Z,11.48
2018-06-22T01:05:11.060Z,11.54
2018-06-22T01:06:11.051Z,11.44
2018-06-22T01:07:11.046Z,11.41
2018-06-22T01:08:11.039Z,11.44
2018-06-22T01:09:11.031Z,11.55
2018-06-22T01:10:11.024Z,11.57
2018-06-22T01:11:11.020Z,11.60
2018-06-22T01:12:11.001Z,11.60
2018-06-22T01:13:10.996Z,11.54
2018-06-22T01:14:10.989Z,11.54
2018-06-22T01:15:10.987Z,11.65
2018-06-22T01:16:10.998Z,11.63
2018-06-22T01:17:10.964Z,11.59
2018-06-22T01:18:10.958Z,11.59
2018-06-22T01:19:10.946Z,11.54
2018-06-22T01:20:10.938Z,11.63
2018-06-22T01:21:10.928Z,11.54
2018-06-22T01:22:10.970Z,11.57
2018-06-22T01:23:10.916Z,11.52
2018-06-22T01:24:10.912Z,11.62
2018-06-22T01:25:10.900Z,11.55
2018-06-22T01:26:10.890Z,11.52
2018-06-22T01:27:10.878Z,11.55
2018-06-22T01:28:10.874Z,11.51
2018-06-22T01:29:10.868Z,11.59
2018-06-22T01:30:10.858Z,11.60
2018-06-22T01:31:10.852Z,11.63
2018-06-22T01:32:10.843Z,11.60
2018-06-22T01:33:10.833Z,11.60
2018-06-22T01:34:10.821Z,11.62
2018-06-22T01:35:10.822Z,11.65
2018-06-22T01:36:10.817Z,11.60
2018-06-22T01:37:10.808Z,11.60
2018-06-22T01:38:10.794Z,11.59
2018-06-22T01:39:10.785Z,11.65
2018-06-22T01:40:10.771Z,11.59
2018-06-22T01:41:10.763Z,11.68
2018-06-22T01:42:10.763Z,11.63
2018-06-22T01:43:10.752Z,11.66
2018-06-22T01:44:10.743Z,11.63
2018-06-22T01:45:10.736Z,11.52
2018-06-22T01:46:10.722Z,11.65
2018-06-22T01:47:10.716Z,11.70
2018-06-22T01:48:10.707Z,11.66
2018-06-22T01:49:10.697Z,11.65
2018-06-22T01:50:10.695Z,11.68
2018-06-22T01:51:10.687Z,11.69
2018-06-22T01:52:10.679Z,11.60
2018-06-22T01:53:10.664Z,11.66
2018-06-22T01:54:10.656Z,11.72
2018-06-22T01:55:10.648Z,11.73
2018-06-22T01:56:10.643Z,11.66
2018-06-22T01:57:10.640Z,11.72
2018-06-22T01:58:10.627Z,11.75
2018-06-22T01:59:10.621Z,11.75
2018-06-22T02:00:10.607Z,11.77
2018-06-22T02:01:10.599Z,11.77
2018-06-22T02:02:10.592Z,11.73
2018-06-22T02:03:10.583Z,11.75
2018-06-22T02:04:10.584Z,11.72
2018-06-22T02:05:10.571Z,11.78
2018-06-22T02:06:10.562Z,11.70
2018-06-22T02:07:10.624Z,11.81
2018-06-22T02:08:10.541Z,11.78
2018-06-22T02:09:10.535Z,11.80
2018-06-22T02:10:10.526Z,11.83
2018-06-22T02:11:10.524Z,11.78
2018-06-22T02:12:10.514Z,11.78
2018-06-22T02:13:10.507Z,11.86
2018-06-22T02:14:10.497Z,11.81
2018-06-22T02:15:10.487Z,11.83
2018-06-22T02:16:10.481Z,11.86
2018-06-22T02:17:10.469Z,11.81
2018-06-22T02:18:10.465Z,11.80
2018-06-22T02:19:10.457Z,11.78
2018-06-22T02:20:10.452Z,11.72
2018-06-22T02:21:10.436Z,11.81
2018-06-22T02:22:10.440Z,11.77
2018-06-22T02:23:10.419Z,11.80
2018-06-22T02:24:10.411Z,11.77
2018-06-22T02:25:10.410Z,11.72
2018-06-22T02:26:10.400Z,11.80
2018-06-22T02:27:10.391Z,11.77
2018-06-22T02:28:10.399Z,11.77
2018-06-22T02:29:10.373Z,11.73
2018-06-22T02:30:10.363Z,11.69
2018-06-22T02:31:10.358Z,11.72
2018-06-22T02:32:10.354Z,11.75
2018-06-22T02:33:10.341Z,11.75
2018-06-22T02:34:10.337Z,11.70
2018-06-22T02:35:10.325Z,11.68
2018-06-22T02:36:10.316Z,11.68
2018-06-22T02:37:10.311Z,11.70
2018-06-22T02:38:10.303Z,11.70
2018-06-22T02:39:10.293Z,11.70
2018-06-22T02:40:10.284Z,11.72
2018-06-22T02:41:10.279Z,11.72
2018-06-22T02:42:10.267Z,11.63
2018-06-22T02:43:10.258Z,11.70
2018-06-22T02:44:10.250Z,11.62
2018-06-22T02:45:10.243Z,11.54
2018-06-22T02:46:10.230Z,11.68
2018-06-22T02:47:10.229Z,11.63
2018-06-22T02:48:10.223Z,11.63
2018-06-22T02:49:10.211Z,11.62
2018-06-22T02:50:10.202Z,11.59
2018-06-22T02:51:10.195Z,11.63
2018-06-22T02:52:10.186Z,11.57
2018-06-22T02:53:10.180Z,11.65
2018-06-22T02:54:10.171Z,11.63
2018-06-22T02:55:10.177Z,11.57
2018-06-22T02:56:10.151Z,11.66
2018-06-22T02:57:10.146Z,11.69
2018-06-22T02:58:10.137Z,11.63
2018-06-22T02:59:10.128Z,11.57
2018-06-22T03:00:10.172Z,11.62
2018-06-22T03:01:10.114Z,11.63
2018-06-22T03:02:10.106Z,11.62
2018-06-22T03:03:10.095Z,11.60
2018-06-22T03:04:10.090Z,11.59
2018-06-22T03:05:10.078Z,11.62
2018-06-22T03:06:10.071Z,11.63
2018-06-22T03:07:10.065Z,11.65
2018-06-22T03:08:10.085Z,11.62
2018-06-22T03:09:10.048Z,11.62
2018-06-22T03:10:10.040Z,11.62
2018-06-22T03:11:10.029Z,11.62
2018-06-22T03:12:10.029Z,11.70
2018-06-22T03:13:10.016Z,11.63
2018-06-22T03:14:10.030Z,11.70
2018-06-22T03:15:10.007Z,11.69
2018-06-22T03:16:09.991Z,11.73
2018-06-22T03:17:09.982Z,11.75
2018-06-22T03:18:09.979Z,11.68
2018-06-22T03:19:09.964Z,11.70
2018-06-22T03:20:09.959Z,11.72
2018-06-22T03:21:09.966Z,11.75
2018-06-22T03:22:09.947Z,11.73
2018-06-22T03:23:09.943Z,11.70
2018-06-22T03:24:09.924Z,11.75
2018-06-22T03:25:09.916Z,11.73
2018-06-22T03:26:09.908Z,11.73
2018-06-22T03:27:09.898Z,11.72
2018-06-22T03:28:09.897Z,11.72
2018-06-22T03:29:09.886Z,11.73
2018-06-22T03:30:09.889Z,11.69
2018-06-22T03:31:09.868Z,11.75
2018-06-22T03:32:09.866Z,11.70
2018-06-22T03:33:09.850Z,11.70
2018-06-22T03:34:09.852Z,11.69
2018-06-22T03:35:09.840Z,11.70
2018-06-22T03:36:09.827Z,11.73
2018-06-22T03:37:09.821Z,11.75
2018-06-22T03:38:09.813Z,11.73
2018-06-22T03:39:09.800Z,11.80
2018-06-22T03:40:09.792Z,11.72
2018-06-22T03:41:09.788Z,11.72
2018-06-22T03:42:09.779Z,11.70
2018-06-22T03:43:09.769Z,11.70
2018-06-22T03:44:09.759Z,11.78
2018-06-22T03:45:09.751Z,11.69
2018-06-22T03:46:09.743Z,11.75
2018-06-22T03:47:09.735Z,11.75
2018-06-22T03:48:09.723Z,11.72
2018-06-22T03:49:09.723Z,11.70
2018-06-22T03:50:09.712Z,11.70
2018-06-22T03:51:09.702Z,11.69
2018-06-22T03:52:09.692Z,11.68
2018-06-22T03:53:09.687Z,11.65
2018-06-22T03:54:09.678Z,11.68
2018-06-22T03:55:09.669Z,11.66
2018-06-22T03:56:09.663Z,11.65
2018-06-22T03:57:09.657Z,11.52
2018-06-22T03:58:09.646Z,11.65
2018-06-22T03:59:09.634Z,11.54
2018-06-22T04:00:09.630Z,11.54
2018-06-22T04:01:09.620Z,11.52
2018-06-22T04:02:09.614Z,11.54
2018-06-22T04:03:09.607Z,11.50
2018-06-22T04:04:09.598Z,11.43
2018-06-22T04:05:09.589Z,11.57
2018-06-22T04:06:09.579Z,11.47
2018-06-22T04:07:09.569Z,11.45
2018-06-22T04:08:09.586Z,11.40
2018-06-22T04:09:09.557Z,11.43
2018-06-22T04:10:09.548Z,11.44
2018-06-22T04:11:09.535Z,11.45
2018-06-22T04:12:09.531Z,11.40
2018-06-22T04:13:09.526Z,11.37
2018-06-22T04:14:09.514Z,11.44
2018-06-22T04:15:09.503Z,11.43
2018-06-22T04:16:09.495Z,11.41
2018-06-22T04:17:09.488Z,11.29
2018-06-22T04:18:09.482Z,11.45
2018-06-22T04:19:09.472Z,11.40
2018-06-22T04:20:09.464Z,11.40
2018-06-22T04:21:09.454Z,11.35
2018-06-22T04:22:09.453Z,11.33
2018-06-22T04:23:09.436Z,11.36
2018-06-22T04:24:09.427Z,11.44
2018-06-22T04:25:09.436Z,11.32
2018-06-22T04:26:09.416Z,11.41
2018-06-22T04:27:09.449Z,11.35
2018-06-22T04:28:09.395Z,11.40
2018-06-22T04:29:09.387Z,11.43
2018-06-22T04:30:09.378Z,11.25
2018-06-22T04:31:09.370Z,11.25
2018-06-22T04:32:09.366Z,11.44
2018-06-22T04:33:09.357Z,11.44
2018-06-22T04:34:09.349Z,11.27
2018-06-22T04:35:09.340Z,11.44
2018-06-22T04:36:09.330Z,11.43
2018-06-22T04:37:09.321Z,11.43
2018-06-22T04:38:09.316Z,11.37
2018-06-22T04:39:09.309Z,11.37
2018-06-22T04:40:09.295Z,11.44
2018-06-22T04:41:09.292Z,11.40
2018-06-22T04:42:09.287Z,11.43
2018-06-22T04:43:09.270Z,11.40
2018-06-22T04:44:09.262Z,11.40
2018-06-22T04:45:09.255Z,11.40
2018-06-22T04:46:09.249Z,11.40
2018-06-22T04:47:09.241Z,11.36
2018-06-22T04:48:09.234Z,11.43
2018-06-22T04:49:09.227Z,11.44
2018-06-22T04:50:09.214Z,11.43
2018-06-22T04:51:09.206Z,11.44
2018-06-22T04:52:09.195Z,11.43
2018-06-22T04:53:09.194Z,11.26
2018-06-22T04:54:09.185Z,11.44
2018-06-22T04:55:09.174Z,11.36
2018-06-22T04:56:09.178Z,11.40
2018-06-22T04:57:09.158Z,11.36
2018-06-22T04:58:09.152Z,11.41
2018-06-22T04:59:09.140Z,11.40
2018-06-22T05:00:09.134Z,11.26
2018-06-22T05:01:09.131Z,11.35
2018-06-22T05:02:09.117Z,11.30
2018-06-22T05:03:09.108Z,11.23
2018-06-22T05:04:09.097Z,11.15
2018-06-22T05:05:09.094Z,11.15
2018-06-22T05:06:09.085Z,11.19
2018-06-22T05:07:09.078Z,11.25
2018-06-22T05:08:09.066Z,11.22
2018-06-22T05:09:09.054Z,11.05
2018-06-22T05:10:09.050Z,11.07
2018-06-22T05:11:09.037Z,11.11
2018-06-22T05:12:09.039Z,11.08
2018-06-22T05:13:09.022Z,11.10
2018-06-22T05:14:09.016Z,11.11
2018-06-22T05:15:09.008Z,10.99
2018-06-22T05:16:08.998Z,11.11
2018-06-22T05:17:08.991Z,11.07
2018-06-22T05:18:08.977Z,11.02
2018-06-22T05:19:08.968Z,11.04
2018-06-22T05:20:08.995Z,11.04
2018-06-22T05:21:08.953Z,11.04
2018-06-22T05:22:08.945Z,10.94
2018-06-22T05:23:08.941Z,11.02
2018-06-22T05:24:08.924Z,10.94
2018-06-22T05:25:08.919Z,11.04
2018-06-22T05:26:08.934Z,11.00
2018-06-22T05:27:08.901Z,10.90
2018-06-22T05:28:08.890Z,10.99
2018-06-22T05:29:08.887Z,10.94
2018-06-22T05:30:08.875Z,11.07
2018-06-22T05:31:08.872Z,10.96
2018-06-22T05:32:08.856Z,10.92
2018-06-22T05:33:08.845Z,11.00
2018-06-22T05:34:08.840Z,10.99
2018-06-22T05:35:08.833Z,10.94
2018-06-22T05:36:08.823Z,10.96
2018-06-22T05:37:08.813Z,11.07
2018-06-22T05:38:08.807Z,11.05
2018-06-22T05:39:08.801Z,11.04
2018-06-22T05:40:08.789Z,10.93
2018-06-22T05:41:08.788Z,10.99
2018-06-22T05:42:08.767Z,10.92
2018-06-22T05:43:08.764Z,10.94
2018-06-22T05:44:08.762Z,10.94
2018-06-22T05:45:08.748Z,10.92
2018-06-22T05:46:08.739Z,10.90
2018-06-22T05:47:08.725Z,10.90
2018-06-22T05:48:08.717Z,10.96
2018-06-22T05:49:08.709Z,11.00
2018-06-22T05:50:08.703Z,11.05
2018-06-22T05:51:08.694Z,11.04
2018-06-22T05:52:08.684Z,11.11
2018-06-22T05:53:08.678Z,11.11
2018-06-22T05:54:08.668Z,11.22
2018-06-22T05:55:08.657Z,11.12
2018-06-22T05:56:08.648Z,11.18
2018-06-22T05:57:08.645Z,11.19
2018-06-22T05:58:08.636Z,11.19
2018-06-22T05:59:08.627Z,11.22
2018-06-22T06:00:08.615Z,11.32
2018-06-22T06:01:08.604Z,11.37
2018-06-22T06:02:08.597Z,11.37
2018-06-22T06:03:08.590Z,11.45
2018-06-22T06:04:08.583Z,11.47
2018-06-22T06:05:08.572Z,11.50
2018-06-22T06:06:08.566Z,11.44
2018-06-22T06:07:08.558Z,11.41
2018-06-22T06:08:08.546Z,11.55
2018-06-22T06:09:08.538Z,11.55
2018-06-22T06:10:08.539Z,11.62
2018-06-22T06:11:08.547Z,11.55
2018-06-22T06:12:08.519Z,11.54
2018-06-22T06:13:08.509Z,11.60
2018-06-22T06:14:08.510Z,11.65
2018-06-22T06:15:08.493Z,11.57
2018-06-22T06:16:08.492Z,11.68
2018-06-22T06:17:08.481Z,11.73
2018-06-22T06:18:08.465Z,11.72
2018-06-22T06:19:08.460Z,11.77
2018-06-22T06:20:08.576Z,11.70
2018-06-22T06:21:08.443Z,11.83
2018-06-22T06:22:08.434Z,11.83
2018-06-22T06:23:08.430Z,11.80
2018-06-22T06:24:08.417Z,11.77
2018-06-22T06:25:08.413Z,11.83
2018-06-22T06:26:08.403Z,11.81
2018-06-22T06:27:08.427Z,11.83
2018-06-22T06:28:08.386Z,11.91
2018-06-22T06:29:08.377Z,11.86
2018-06-22T06:30:08.368Z,11.91
2018-06-22T06:31:08.362Z,11.97
2018-06-22T06:32:08.356Z,11.90
2018-06-22T06:33:08.348Z,11.87
2018-06-22T06:34:08.341Z,11.90
2018-06-22T06:35:08.337Z,11.80
2018-06-22T06:36:08.320Z,11.99
2018-06-22T06:37:08.314Z,11.87
2018-06-22T06:38:08.309Z,11.99
2018-06-22T06:39:08.316Z,11.88
2018-06-22T06:40:08.293Z,12.00
2018-06-22T06:41:08.285Z,12.04
2018-06-22T06:42:08.278Z,12.06
2018-06-22T06:43:08.268Z,12.10
2018-06-22T06:44:08.257Z,12.09
2018-06-22T06:45:08.255Z,12.06
2018-06-22T06:46:08.251Z,12.12
2018-06-22T06:47:08.239Z,12.22
2018-06-22T06:48:08.234Z,12.28
2018-06-22T06:49:08.222Z,12.15
2018-06-22T06:50:08.210Z,12.32
2018-06-22T06:51:08.204Z,12.31
2018-06-22T06:52:08.215Z,12.29
2018-06-22T06:53:08.195Z,12.31
2018-06-22T06:54:08.187Z,12.42
2018-06-22T06:55:08.174Z,12.47
2018-06-22T06:56:08.170Z,12.55
2018-06-22T06:57:08.155Z,12.57
2018-06-22T06:58:08.151Z,12.60
2018-06-22T06:59:08.144Z,12.64
2018-06-22T07:00:08.136Z,12.60
2018-06-22T07:01:08.130Z,12.64
2018-06-22T07:02:08.122Z,12.67
2018-06-22T07:03:08.110Z,12.67
2018-06-22T07:04:08.107Z,12.61
2018-06-22T07:05:08.097Z,12.60
2018-06-22T07:06:08.090Z,12.54
2018-06-22T07:07:08.081Z,12.53
2018-06-22T07:08:08.078Z,12.55
2018-06-22T07:09:08.069Z,12.57
2018-06-22T07:10:08.063Z,12.60
2018-06-22T07:11:08.052Z,12.55
2018-06-22T07:12:08.047Z,12.70
2018-06-22T07:13:08.037Z,12.67
2018-06-22T07:14:08.030Z,12.79
2018-06-22T07:15:08.022Z,13.01
2018-06-22T07:16:08.016Z,13.25
2018-06-22T07:17:08.069Z,13.38
2018-06-22T07:18:08.001Z,13.81
2018-06-22T07:19:08.028Z,13.99
2018-06-22T07:20:07.991Z,14.28
2018-06-22T07:21:07.984Z,14.41
2018-06-22T07:22:07.978Z,14.58
2018-06-22T07:23:07.971Z,14.94
2018-06-22T07:24:07.980Z,15.06
2018-06-22T07:25:07.987Z,15.17
2018-06-22T07:26:07.951Z,15.14
2018-06-22T07:27:07.948Z,15.19
2018-06-22T07:28:07.942Z,15.17
2018-06-22T07:29:07.937Z,15.10
2018-06-22T07:30:07.930Z,14.91
2018-06-22T07:31:07.927Z,14.92
2018-06-22T07:32:07.918Z,14.86
2018-06-22T07:33:07.915Z,14.94
2018-06-22T07:34:07.909Z,15.02
2018-06-22T07:35:07.906Z,15.15
2018-06-22T07:36:07.902Z,15.36
2018-06-22T07:37:07.896Z,15.46
2018-06-22T07:38:07.892Z,15.62
2018-06-22T07:39:07.885Z,15.77
2018-06-22T07:40:07.883Z,15.80
2018-06-22T07:41:07.883Z,15.79
2018-06-22T07:42:07.872Z,15.67
2018-06-22T07:43:07.868Z,15.86
2018-06-22T07:44:07.866Z,15.92
2018-06-22T07:45:07.860Z,16.23
2018-06-22T07:46:07.850Z,16.42
2018-06-22T07:47:07.848Z,16.58
2018-06-22T07:48:07.844Z,16.72
2018-06-22T07:49:07.840Z,16.94
2018-06-22T07:50:07.843Z,17.05
2018-06-22T07:51:07.843Z,17.02
2018-06-22T07:52:07.835Z,17.05
2018-06-22T07:53:07.829Z,17.02
2018-06-22T07:54:07.830Z,16.93
2018-06-22T07:55:07.887Z,16.84
2018-06-22T07:56:07.820Z,16.71
2018-06-22T07:57:07.857Z,16.66
2018-06-22T07:58:07.823Z,16.38
2018-06-22T07:59:07.812Z,16.46
2018-06-22T08:00:07.806Z,16.42
2018-06-22T08:01:07.806Z,16.50
2018-06-22T08:02:07.803Z,16.57
2018-06-22T08:03:07.796Z,16.58
2018-06-22T08:04:07.795Z,16.47
2018-06-22T08:05:07.795Z,16.49
2018-06-22T08:06:07.827Z,16.36
2018-06-22T08:07:07.785Z,16.49
2018-06-22T08:08:07.779Z,16.47
2018-06-22T08:09:07.775Z,16.43
2018-06-22T08:10:07.775Z,16.47
2018-06-22T08:11:07.769Z,16.53
2018-06-22T08:12:07.768Z,16.54
2018-06-22T08:13:07.765Z,16.53
2018-06-22T08:14:07.759Z,16.60
2018-06-22T08:15:07.756Z,16.58
2018-06-22T08:16:07.750Z,16.57
2018-06-22T08:17:07.751Z,16.54
2018-06-22T08:18:07.747Z,16.54
2018-06-22T08:19:07.742Z,16.51
2018-06-22T08:20:07.739Z,16.38
2018-06-22T08:21:07.740Z,16.24
2018-06-22T08:22:07.737Z,16.17
2018-06-22T08:23:07.727Z,16.38
2018-06-22T08:24:07.728Z,16.43
2018-06-22T08:25:07.723Z,16.60
2018-06-22T08:26:07.716Z,16.84
2018-06-22T08:27:07.711Z,16.99
2018-06-22T08:28:07.707Z,17.01
2018-06-22T08:29:07.706Z,17.01
2018-06-22T08:30:07.706Z,17.01
2018-06-22T08:31:07.701Z,16.97
2018-06-22T08:32:07.698Z,16.89
2018-06-22T08:33:07.700Z,16.72
2018-06-22T08:34:07.692Z,16.56
2018-06-22T08:35:07.687Z,16.41
2018-06-22T08:36:07.681Z,16.21
2018-06-22T08:37:07.680Z,16.09
2018-06-22T08:38:07.675Z,16.02
2018-06-22T08:39:07.671Z,15.80
2018-06-22T08:40:07.667Z,15.77
2018-06-22T08:41:07.663Z,15.62
2018-06-22T08:42:07.675Z,15.52
2018-06-22T08:43:07.654Z,15.43
2018-06-22T08:44:07.646Z,15.28
2018-06-22T08:45:07.647Z,15.22
2018-06-22T08:46:07.643Z,15.24
2018-06-22T08:47:07.639Z,15.11
2018-06-22T08:48:07.631Z,15.09
2018-06-22T08:49:07.631Z,15.06
2018-06-22T08:50:07.620Z,15.14
2018-06-22T08:51:07.612Z,15.00
2018-06-22T08:52:07.610Z,15.21
2018-06-22T08:53:07.602Z,15.49
2018-06-22T08:54:07.601Z,15.88
2018-06-22T08:55:07.596Z,16.24
2018-06-22T08:56:07.589Z,16.53
2018-06-22T08:57:07.581Z,17.05
2018-06-22T08:58:07.581Z,17.39
2018-06-22T08:59:07.576Z,17.60
2018-06-22T09:00:07.572Z,17.71
2018-06-22T09:01:07.613Z,17.89
2018-06-22T09:02:07.567Z,18.03
2018-06-22T09:03:07.563Z,17.94
2018-06-22T09:04:07.557Z,17.97
2018-06-22T09:05:07.555Z,17.90
2018-06-22T09:06:07.558Z,17.92
2018-06-22T09:07:07.554Z,17.94
2018-06-22T09:08:07.623Z,17.94
2018-06-22T09:09:07.549Z,17.85
2018-06-22T09:10:07.544Z,17.90
2018-06-22T09:11:07.541Z,17.87
2018-06-22T09:12:07.539Z,17.90
2018-06-22T09:13:07.540Z,17.95
2018-06-22T09:14:07.538Z,18.08
2018-06-22T09:15:07.536Z,18.10
2018-06-22T09:16:07.530Z,17.98
2018-06-22T09:17:07.528Z,17.82
2018-06-22T09:18:07.527Z,17.56
2018-06-22T09:19:07.525Z,17.51
2018-06-22T09:20:07.526Z,17.49
2018-06-22T09:21:07.523Z,17.29
2018-06-22T09:22:07.529Z,17.36
2018-06-22T09:23:07.513Z,17.46
2018-06-22T09:24:07.521Z,17.54
2018-06-22T09:25:07.513Z,17.67
2018-06-22T09:26:07.510Z,17.80
2018-06-22T09:27:07.508Z,17.87
2018-06-22T09:28:07.504Z,17.95
2018-06-22T09:29:07.501Z,17.98
2018-06-22T09:30:07.547Z,17.92
2018-06-22T09:31:07.494Z,17.92
2018-06-22T09:32:07.494Z,17.76
2018-06-22T09:33:07.490Z,17.59
2018-06-22T09:34:07.490Z,17.34
2018-06-22T09:35:07.487Z,17.09
2018-06-22T09:36:07.488Z,17.05
2018-06-22T09:37:07.484Z,16.83
2018-06-22T09:38:07.476Z,16.74
2018-06-22T09:39:07.470Z,16.41
2018-06-22T09:40:07.472Z,16.29
2018-06-22T09:41:07.472Z,16.24
2018-06-22T09:42:07.466Z,16.05
2018-06-22T09:43:07.460Z,15.98
2018-06-22T09:44:07.463Z,15.82
2018-06-22T09:45:07.465Z,15.72
2018-06-22T09:46:07.755Z,15.68
2018-06-22T09:47:07.637Z,15.55
2018-06-22T09:48:07.509Z,15.64
2018-06-22T09:49:11.860Z,15.76
2018-06-22T09:50:07.558Z,15.75
2018-06-22T09:51:07.489Z,15.80
2018-06-22T09:52:07.978Z,15.98
2018-06-22T09:53:07.579Z,16.39
2018-06-22T09:54:10.373Z,16.87
2018-06-22T09:55:07.649Z,17.11
2018-06-22T09:56:07.520Z,17.52
2018-06-22T09:57:07.407Z,17.80
2018-06-22T09:58:07.406Z,17.89
2018-06-22T09:59:07.400Z,18.33
2018-06-22T10:00:07.395Z,18.77
2018-06-22T10:01:07.393Z,18.90
2018-06-22T10:02:07.413Z,19.27
2018-06-22T10:03:07.385Z,19.48
2018-06-22T10:04:07.397Z,19.74
2018-06-22T10:05:07.386Z,20.07
2018-06-22T10:06:07.382Z,20.28
2018-06-22T10:07:07.380Z,20.44
2018-06-22T10:08:07.410Z,20.44
2018-06-22T10:09:07.383Z,20.36
2018-06-22T10:10:07.385Z,20.36
2018-06-22T10:11:07.382Z,20.32
2018-06-22T10:12:07.382Z,20.25
2018-06-22T10:13:07.381Z,20.09
2018-06-22T10:14:07.381Z,20.02
2018-06-22T10:15:07.385Z,19.91
2018-06-22T10:16:07.386Z,19.73
2018-06-22T10:17:07.387Z,19.64
2018-06-22T10:18:07.388Z,19.67
2018-06-22T10:19:07.382Z,19.51
2018-06-22T10:20:07.387Z,19.48
2018-06-22T10:21:07.384Z,19.49
2018-06-22T10:22:07.389Z,19.56
2018-06-22T10:23:07.390Z,19.52
2018-06-22T10:24:07.385Z,19.52
2018-06-22T10:25:07.386Z,19.58
2018-06-22T10:26:07.387Z,19.52
2018-06-22T10:27:07.531Z,19.47
2018-06-22T10:28:07.384Z,19.30
2018-06-22T10:29:07.386Z,19.21
2018-06-22T10:30:07.388Z,19.00
2018-06-22T10:31:07.386Z,18.81
2018-06-22T10:32:07.384Z,18.50
2018-06-22T10:33:07.382Z,18.38
2018-06-22T10:34:07.380Z,18.20
2018-06-22T10:35:07.382Z,18.10
2018-06-22T10:36:07.381Z,18.00
2018-06-22T10:37:07.380Z,18.00
2018-06-22T10:38:07.379Z,17.90
2018-06-22T10:39:07.388Z,17.98
2018-06-22T10:40:07.374Z,17.95
2018-06-22T10:41:07.372Z,18.08
2018-06-22T10:42:07.396Z,18.47
2018-06-22T10:43:07.372Z,18.52
2018-06-22T10:44:07.374Z,18.71
2018-06-22T10:45:07.368Z,18.73
2018-06-22T10:46:07.391Z,18.98
2018-06-22T10:47:07.358Z,19.19
2018-06-22T10:48:07.359Z,19.40
2018-06-22T10:49:07.377Z,19.51
2018-06-22T10:50:07.358Z,19.81
2018-06-22T10:51:07.358Z,20.13
2018-06-22T10:52:07.358Z,20.26
2018-06-22T10:53:07.356Z,20.44
2018-06-22T10:54:07.353Z,20.59
2018-06-22T10:55:07.355Z,20.81
2018-06-22T10:56:07.361Z,20.95
2018-06-22T10:57:07.360Z,21.06
2018-06-22T10:58:07.362Z,20.96
2018-06-22T10:59:07.362Z,20.92
2018-06-22T11:00:07.360Z,21.02
2018-06-22T11:01:07.366Z,21.00
2018-06-22T11:02:07.371Z,21.05
2018-06-22T11:03:07.371Z,21.18
2018-06-22T11:04:07.378Z,21.32
2018-06-22T11:05:07.371Z,21.40
2018-06-22T11:06:07.378Z,21.35
2018-06-22T11:07:07.380Z,21.45
2018-06-22T11:08:07.384Z,21.42
2018-06-22T11:09:07.382Z,21.55
2018-06-22T11:10:07.391Z,21.60
2018-06-22T11:11:07.391Z,21.73
2018-06-22T11:12:07.396Z,21.82
2018-06-22T11:13:07.401Z,21.88
2018-06-22T11:14:07.401Z,22.07
2018-06-22T11:15:07.403Z,22.18
2018-06-22T11:16:07.411Z,22.38
2018-06-22T11:17:07.435Z,22.51
2018-06-22T11:18:07.420Z,22.47
2018-06-22T11:19:07.422Z,22.25
2018-06-22T11:20:07.425Z,22.18
2018-06-22T11:21:07.454Z,22.06
2018-06-22T11:22:07.432Z,21.88
2018-06-22T11:23:07.433Z,21.83
2018-06-22T11:24:07.439Z,21.75
2018-06-22T11:25:07.452Z,21.73
2018-06-22T11:26:07.444Z,21.64
2018-06-22T11:27:07.453Z,21.36
2018-06-22T11:28:07.450Z,21.29
2018-06-22T11:29:07.469Z,21.15
2018-06-22T11:30:07.452Z,21.24
2018-06-22T11:31:07.456Z,21.46
2018-06-22T11:32:07.492Z,21.73
2018-06-22T11:33:07.462Z,21.75
2018-06-22T11:34:07.461Z,21.69
2018-06-22T11:35:07.466Z,21.37
2018-06-22T11:36:07.469Z,21.24
2018-06-22T11:37:07.472Z,21.15
2018-06-22T11:38:07.474Z,20.95
2018-06-22T11:39:07.471Z,20.66
2018-06-22T11:40:07.476Z,20.59
2018-06-22T11:41:07.474Z,20.59
2018-06-22T11:42:07.482Z,20.39
2018-06-22T11:43:07.478Z,20.25
2018-06-22T11:44:07.478Z,20.14
2018-06-22T11:45:07.481Z,19.86
2018-06-22T11:46:07.486Z,19.71
2018-06-22T11:47:07.481Z,19.73
2018-06-22T11:48:07.483Z,19.66
2018-06-22T11:49:07.478Z,19.52
2018-06-22T11:50:07.478Z,19.49
2018-06-22T11:51:07.485Z,19.40
2018-06-22T11:52:07.480Z,19.45
2018-06-22T11:53:07.480Z,19.52
2018-06-22T11:54:07.483Z,19.56
2018-06-22T11:55:07.474Z,19.64
2018-06-22T11:56:07.475Z,19.59
2018-06-22T11:57:07.475Z,19.52
2018-06-22T11:58:07.478Z,19.56
2018-06-22T11:59:07.520Z,19.63
2018-06-22T12:00:07.474Z,19.85
2018-06-22T12:01:07.475Z,19.74
2018-06-22T12:02:07.473Z,19.66
2018-06-22T12:03:07.473Z,19.66
2018-06-22T12:04:07.502Z,19.66
2018-06-22T12:05:07.481Z,19.76
2018-06-22T12:06:07.479Z,19.82
2018-06-22T12:07:07.477Z,19.82
2018-06-22T12:08:07.477Z,19.67
2018-06-22T12:09:07.479Z,19.66
2018-06-22T12:10:07.530Z,19.55
2018-06-22T12:11:07.478Z,19.48
2018-06-22T12:12:07.484Z,19.44
2018-06-22T12:13:07.483Z,19.34
2018-06-22T12:14:07.484Z,19.16
2018-06-22T12:15:07.480Z,19.24
2018-06-22T12:16:07.481Z,19.29
2018-06-22T12:17:07.479Z,19.29
2018-06-22T12:18:07.481Z,19.37
2018-06-22T12:19:07.515Z,19.34
2018-06-22T12:20:07.499Z,19.33
2018-06-22T12:21:07.483Z,19.31
2018-06-22T12:22:07.484Z,19.29
2018-06-22T12:23:07.482Z,19.22
2018-06-22T12:24:07.481Z,19.08
2018-06-22T12:25:07.492Z,19.11
2018-06-22T12:26:07.480Z,19.04
2018-06-22T12:27:07.479Z,18.93
2018-06-22T12:28:07.478Z,18.86
2018-06-22T12:29:07.473Z,18.89
2018-06-22T12:30:07.473Z,18.99
2018-06-22T12:31:07.474Z,19.08
2018-06-22T12:32:07.473Z,19.26
2018-06-22T12:33:07.475Z,19.16
2018-06-22T12:34:07.483Z,19.16
2018-06-22T12:35:07.473Z,19.26
2018-06-22T12:36:07.464Z,19.44
2018-06-22T12:37:07.469Z,19.44
2018-06-22T12:38:07.465Z,19.41
2018-06-22T12:39:07.466Z,19.47
2018-06-22T12:40:07.465Z,19.55
2018-06-22T12:41:07.466Z,19.82
2018-06-22T12:42:07.459Z,20.09
2018-06-22T12:43:07.468Z,20.31
2018-06-22T12:44:07.469Z,20.48
2018-06-22T12:45:07.557Z,20.58
2018-06-22T12:46:07.475Z,20.43
2018-06-22T12:47:07.460Z,20.37
2018-06-22T12:48:07.461Z,20.39
2018-06-22T12:49:07.461Z,20.28
2018-06-22T12:50:07.454Z,20.21
2018-06-22T12:51:07.455Z,19.82
2018-06-22T12:52:07.456Z,19.44